createdAt,value
2018-05-02T00:01:18.740Z,10.40
2018-05-02T00:03:46.414Z,10.50
2018-05-02T00:06:14.067Z,10.50
2018-05-02T00:08:41.738Z,10.40
2018-05-02T00:11:09.394Z,10.40
2018-05-02T00:13:37.687Z,10.30
2018-05-02T00:16:05.347Z,10.30
2018-05-02T00:18:33.412Z,10.20
2018-05-02T00:21:01.109Z,10.20
2018-05-02T00:23:28.827Z,10.20
2018-05-02T00:25:56.496Z,10.20
2018-05-02T00:28:24.153Z,10.30
2018-05-02T00:30:51.836Z,10.30
2018-05-02T00:33:19.501Z,10.30
2018-05-02T00:35:47.277Z,10.30
2018-05-02T00:38:15.011Z,10.30
2018-05-02T00:40:42.721Z,10.30
2018-05-02T00:43:10.554Z,10.20
2018-05-02T00:45:38.122Z,10.10
2018-05-02T00:48:05.788Z,10.10
2018-05-02T00:50:33.470Z,10.00
2018-05-02T00:53:01.123Z,10.00
2018-05-02T00:55:28.796Z,10.00
2018-05-02T00:57:56.438Z,9.90
2018-05-02T01:00:24.108Z,9.90
2018-05-02T01:02:51.753Z,9.90
2018-05-02T01:05:19.508Z,10.00
2018-05-02T01:07:47.159Z,10.00
2018-05-02T01:10:14.831Z,10.00
2018-05-02T01:12:42.508Z,10.00
2018-05-02T01:15:10.155Z,9.90
2018-05-02T01:17:37.811Z,9.90
2018-05-02T01:20:05.583Z,9.90
2018-05-02T01:22:33.239Z,9.90
2018-05-02T01:25:01.001Z,9.80
2018-05-02T01:27:28.661Z,9.70
2018-05-02T01:29:57.202Z,9.50
2018-05-02T01:32:24.930Z,9.50
2018-05-02T01:34:52.589Z,9.50
2018-05-02T01:37:20.244Z,9.50
2018-05-02T01:39:47.922Z,9.40
2018-05-02T01:42:15.580Z,9.30
2018-05-02T01:44:43.248Z,9.20
2018-05-02T01:47:10.904Z,9.20
2018-05-02T01:49:38.565Z,9.20
2018-05-02T01:52:06.230Z,9.20
2018-05-02T01:54:33.895Z,9.20
2018-05-02T01:57:01.535Z,9.20
2018-05-02T01:59:29.973Z,9.10
2018-05-02T02:01:57.635Z,9.10
2018-05-02T02:04:25.290Z,9.20
2018-05-02T02:06:53.028Z,9.20
2018-05-02T02:09:20.842Z,9.00
2018-05-02T02:11:48.470Z,9.10
2018-05-02T02:14:16.135Z,9.10
2018-05-02T02:16:43.821Z,9.10
2018-05-02T02:19:11.536Z,9.10
2018-05-02T02:21:39.301Z,9.20
2018-05-02T02:24:06.976Z,9.20
2018-05-02T02:26:34.637Z,9.20
2018-05-02T02:29:02.299Z,9.10
2018-05-02T02:31:29.961Z,9.00
2018-05-02T02:33:57.673Z,9.10
2018-05-02T02:36:25.271Z,9.00
2018-05-02T02:38:52.916Z,9.00
2018-05-02T02:41:21.533Z,9.00
2018-05-02T02:43:50.073Z,9.00
2018-05-02T02:46:17.772Z,9.00
2018-05-02T02:48:45.441Z,9.00
2018-05-02T02:51:13.104Z,9.00
2018-05-02T02:53:41.228Z,9.00
2018-05-02T02:56:08.895Z,8.90
2018-05-02T02:58:36.556Z,8.90
2018-05-02T03:01:04.226Z,8.80
2018-05-02T03:03:31.882Z,8.80
2018-05-02T03:05:59.590Z,8.80
2018-05-02T03:08:27.258Z,8.70
2018-05-02T03:10:55.062Z,8.70
2018-05-02T03:13:23.412Z,8.70
2018-05-02T03:15:51.209Z,8.70
2018-05-02T03:18:18.938Z,8.80
2018-05-02T03:20:46.597Z,8.80
2018-05-02T03:23:14.262Z,8.80
2018-05-02T03:25:41.927Z,8.70
2018-05-02T03:28:09.579Z,8.70
2018-05-02T03:30:37.233Z,8.70
2018-05-02T03:33:05.355Z,8.70
2018-05-02T03:35:32.966Z,8.70
2018-05-02T03:38:00.629Z,8.60
2018-05-02T03:40:28.292Z,8.50
2018-05-02T03:42:55.952Z,8.50
2018-05-02T03:45:23.600Z,8.40
2018-05-02T03:47:52.037Z,8.50
2018-05-02T03:50:19.683Z,8.50
2018-05-02T03:52:47.355Z,8.40
2018-05-02T03:55:15.007Z,8.40
2018-05-02T03:57:42.678Z,8.40
2018-05-02T04:00:16.304Z,8.40
2018-05-02T04:02:49.905Z,8.40
2018-05-02T04:05:23.352Z,8.50
2018-05-02T04:07:51.915Z,8.50
2018-05-02T04:10:20.333Z,8.60
2018-05-02T04:12:47.997Z,8.60
2018-05-02T04:15:15.638Z,8.60
2018-05-02T04:17:43.434Z,8.70
2018-05-02T04:20:11.088Z,8.70
2018-05-02T04:22:38.840Z,8.70
2018-05-02T04:25:06.489Z,8.80
2018-05-02T04:27:34.996Z,8.90
2018-05-02T04:30:02.644Z,8.80
2018-05-02T04:32:30.303Z,8.90
2018-05-02T04:34:58.026Z,8.90
2018-05-02T04:37:25.670Z,8.90
2018-05-02T04:39:53.404Z,9.00
2018-05-02T04:42:21.191Z,9.00
2018-05-02T04:44:48.932Z,9.10
2018-05-02T04:47:16.703Z,9.20
2018-05-02T04:49:44.352Z,9.30
2018-05-02T04:52:12.165Z,9.30
2018-05-02T04:54:39.892Z,9.40
2018-05-02T04:57:08.011Z,9.40
2018-05-02T04:59:35.829Z,9.40
2018-05-02T05:02:03.394Z,9.50
2018-05-02T05:04:31.053Z,9.50
2018-05-02T05:06:58.704Z,9.60
2018-05-02T05:09:27.132Z,9.70
2018-05-02T05:11:54.924Z,9.70
2018-05-02T05:14:22.582Z,9.80
2018-05-02T05:16:50.246Z,9.90
2018-05-02T05:19:17.927Z,10.00
2018-05-02T05:21:47.007Z,10.10
2018-05-02T05:24:14.690Z,10.10
2018-05-02T05:26:43.218Z,10.40
2018-05-02T05:29:10.955Z,10.30
2018-05-02T05:31:38.616Z,10.40
2018-05-02T05:34:06.308Z,10.50
2018-05-02T05:36:34.862Z,10.60
2018-05-02T05:39:02.533Z,10.80
2018-05-02T05:41:30.192Z,10.90
2018-05-02T05:43:57.874Z,11.10
2018-05-02T05:46:26.032Z,11.20
2018-05-02T05:48:53.690Z,11.30
2018-05-02T05:51:21.367Z,11.30
2018-05-02T05:53:49.128Z,11.40
2018-05-02T05:56:16.895Z,11.50
2018-05-02T05:58:44.864Z,11.40
2018-05-02T06:01:12.526Z,11.50
2018-05-02T06:03:40.186Z,11.60
2018-05-02T06:06:07.848Z,11.70
2018-05-02T06:08:35.519Z,11.80
2018-05-02T06:11:03.179Z,12.00
2018-05-02T06:13:30.939Z,12.00
2018-05-02T06:15:58.597Z,12.10
2018-05-02T06:18:26.270Z,12.20
2018-05-02T06:20:53.925Z,12.30
2018-05-02T06:23:21.730Z,12.20
2018-05-02T06:25:49.355Z,12.30
2018-05-02T06:28:17.023Z,12.40
2018-05-02T06:30:44.684Z,12.50
2018-05-02T06:33:12.435Z,12.60
2018-05-02T06:35:40.097Z,12.70
2018-05-02T06:38:07.773Z,12.60
2018-05-02T06:40:35.448Z,12.80
2018-05-02T06:43:03.157Z,12.80
2018-05-02T06:45:30.837Z,12.90
2018-05-02T06:47:59.264Z,13.10
2018-05-02T06:50:26.940Z,13.10
2018-05-02T06:52:54.604Z,13.30
2018-05-02T06:55:22.295Z,13.40
2018-05-02T06:57:50.813Z,13.70
2018-05-02T07:00:18.479Z,13.60
2018-05-02T07:02:46.252Z,13.80
2018-05-02T07:05:14.019Z,13.70
2018-05-02T07:07:41.676Z,14.00
2018-05-02T07:10:09.359Z,13.90
2018-05-02T07:12:37.020Z,13.70
2018-05-02T07:15:04.747Z,13.80
2018-05-02T07:17:32.399Z,13.90
2018-05-02T07:20:00.071Z,14.00
2018-05-02T07:22:27.749Z,14.00
2018-05-02T07:24:56.321Z,14.10
2018-05-02T07:27:23.991Z,14.20
2018-05-02T07:29:51.679Z,13.90
2018-05-02T07:32:19.336Z,14.00
2018-05-02T07:34:47.010Z,14.30
2018-05-02T07:37:14.660Z,14.60
2018-05-02T07:39:42.425Z,14.50
2018-05-02T07:42:10.088Z,14.70
2018-05-02T07:44:37.757Z,15.00
2018-05-02T07:47:05.412Z,15.00
2018-05-02T07:49:33.210Z,15.00
2018-05-02T07:52:00.909Z,15.20
2018-05-02T07:54:28.601Z,15.30
2018-05-02T07:56:56.251Z,15.40
2018-05-02T07:59:23.919Z,15.70
2018-05-02T08:01:51.591Z,15.70
2018-05-02T08:04:19.248Z,15.70
2018-05-02T08:06:46.919Z,15.70
2018-05-02T08:09:14.574Z,15.90
2018-05-02T08:11:42.241Z,15.80
2018-05-02T08:14:09.895Z,16.00
2018-05-02T08:16:38.647Z,16.10
2018-05-02T08:19:07.070Z,16.40
2018-05-02T08:21:34.727Z,16.30
2018-05-02T08:24:02.384Z,16.60
2018-05-02T08:26:30.170Z,16.60
2018-05-02T08:28:57.835Z,16.70
2018-05-02T08:31:25.539Z,16.70
2018-05-02T08:33:53.159Z,16.90
2018-05-02T08:36:20.857Z,16.90
2018-05-02T08:38:48.529Z,17.00
2018-05-02T08:41:16.222Z,17.10
2018-05-02T08:43:45.167Z,17.10
2018-05-02T08:46:12.926Z,17.00
2018-05-02T08:48:40.552Z,17.10
2018-05-02T08:51:08.256Z,17.20
2018-05-02T08:53:35.900Z,17.20
2018-05-02T08:56:03.586Z,17.30
2018-05-02T08:58:31.230Z,17.40
2018-05-02T09:00:58.904Z,17.30
2018-05-02T09:03:26.554Z,17.40
2018-05-02T09:05:54.289Z,17.50
2018-05-02T09:08:21.943Z,17.50
2018-05-02T09:10:49.760Z,17.60
2018-05-02T09:13:17.380Z,17.70
2018-05-02T09:15:45.139Z,17.60
2018-05-02T09:18:12.794Z,17.40
2018-05-02T09:20:41.024Z,17.10
2018-05-02T09:23:08.789Z,17.00
2018-05-02T09:25:36.434Z,17.00
2018-05-02T09:28:04.083Z,16.90
2018-05-02T09:30:31.758Z,16.90
2018-05-02T09:32:59.408Z,16.70
2018-05-02T09:35:27.082Z,16.50
2018-05-02T09:37:54.822Z,16.50
2018-05-02T09:40:22.485Z,16.30
2018-05-02T09:42:50.192Z,16.20
2018-05-02T09:45:17.820Z,16.10
2018-05-02T09:47:45.495Z,16.20
2018-05-02T09:50:13.252Z,16.00
2018-05-02T09:52:40.915Z,15.90
2018-05-02T09:55:08.668Z,16.00
2018-05-02T09:57:36.338Z,15.90
2018-05-02T10:00:04.008Z,16.00
2018-05-02T10:02:31.661Z,16.10
2018-05-02T10:04:59.317Z,16.10
2018-05-02T10:07:27.023Z,16.10
2018-05-02T10:09:54.676Z,16.10
2018-05-02T10:12:22.350Z,16.10
2018-05-02T10:14:50.002Z,16.20
2018-05-02T10:17:17.741Z,16.20
2018-05-02T10:19:45.399Z,16.20
2018-05-02T10:22:13.074Z,16.40
2018-05-02T10:24:40.823Z,16.20
2018-05-02T10:27:08.539Z,16.30
2018-05-02T10:29:36.200Z,16.40
2018-05-02T10:32:03.875Z,16.50
2018-05-02T10:34:31.577Z,16.30
2018-05-02T10:36:59.340Z,16.40
2018-05-02T10:39:26.912Z,16.50
2018-05-02T10:41:54.587Z,16.50
2018-05-02T10:44:22.235Z,16.60
2018-05-02T10:46:50.019Z,16.60
2018-05-02T10:49:17.655Z,16.30
2018-05-02T10:51:45.337Z,16.40
2018-05-02T10:54:12.987Z,16.50
2018-05-02T10:56:40.650Z,16.50
2018-05-02T10:59:08.452Z,16.80
2018-05-02T11:01:36.087Z,16.90
2018-05-02T11:04:03.777Z,17.20
2018-05-02T11:06:31.431Z,17.10
2018-05-02T11:08:59.169Z,17.10
2018-05-02T11:11:26.971Z,17.00
2018-05-02T11:13:54.623Z,16.90
2018-05-02T11:16:22.263Z,17.00
2018-05-02T11:18:49.958Z,16.90
2018-05-02T11:21:17.684Z,16.80
2018-05-02T11:23:45.366Z,16.70
2018-05-02T11:26:13.047Z,16.90
2018-05-02T11:28:40.778Z,17.10
2018-05-02T11:31:08.544Z,17.20
2018-05-02T11:33:36.232Z,17.10
2018-05-02T11:36:03.887Z,17.10
2018-05-02T11:38:31.575Z,17.20
2018-05-02T11:40:59.236Z,17.20
2018-05-02T11:43:26.980Z,17.10
2018-05-02T11:45:54.641Z,17.10
2018-05-02T11:48:22.313Z,17.20
2018-05-02T11:50:49.956Z,16.80
2018-05-02T11:53:17.707Z,16.70
2018-05-02T11:55:45.383Z,16.40
2018-05-02T11:58:13.151Z,16.40
2018-05-02T12:00:40.807Z,16.40
2018-05-02T12:03:08.503Z,16.40
2018-05-02T12:05:36.183Z,16.30
2018-05-02T12:08:03.930Z,16.00
2018-05-02T12:10:31.717Z,16.10
2018-05-02T12:12:59.307Z,16.10
2018-05-02T12:15:27.068Z,16.10
2018-05-02T12:17:54.752Z,16.10
2018-05-02T12:20:22.420Z,16.00
2018-05-02T12:22:50.075Z,15.80
2018-05-02T12:25:17.840Z,15.80
2018-05-02T12:27:45.513Z,15.90
2018-05-02T12:30:13.510Z,15.80
2018-05-02T12:32:41.233Z,15.90
2018-05-02T12:35:08.908Z,15.90
2018-05-02T12:37:36.566Z,15.90
2018-05-02T12:40:04.228Z,15.90
2018-05-02T12:42:31.882Z,15.80
2018-05-02T12:44:59.557Z,15.80
2018-05-02T12:47:27.212Z,15.70
2018-05-02T12:49:54.881Z,15.70
2018-05-02T12:52:22.635Z,15.80
2018-05-02T12:54:50.314Z,15.90
2018-05-02T12:57:17.963Z,15.80
2018-05-02T12:59:45.671Z,16.00
2018-05-02T13:02:13.297Z,16.00
2018-05-02T13:04:40.964Z,15.90
2018-05-02T13:07:08.628Z,15.70
2018-05-02T13:09:36.303Z,15.70
2018-05-02T13:12:04.067Z,15.80
2018-05-02T13:14:31.729Z,15.80
2018-05-02T13:16:59.381Z,16.00
2018-05-02T13:19:27.079Z,16.10
2018-05-02T13:21:54.786Z,16.20
2018-05-02T13:24:22.450Z,16.50
2018-05-02T13:26:50.114Z,16.60
2018-05-02T13:29:17.892Z,17.00
2018-05-02T13:31:45.548Z,17.30
2018-05-02T13:34:13.209Z,17.40
2018-05-02T13:36:40.892Z,17.60
2018-05-02T13:39:08.631Z,17.30
2018-05-02T13:41:36.307Z,17.70
2018-05-02T13:44:03.963Z,17.70
2018-05-02T13:46:31.637Z,17.70
2018-05-02T13:48:59.390Z,18.10
2018-05-02T13:51:27.070Z,18.00
2018-05-02T13:53:54.758Z,18.30
2018-05-02T13:56:22.406Z,18.60
2018-05-02T13:58:50.060Z,18.70
2018-05-02T14:01:18.188Z,18.80
2018-05-02T14:03:45.886Z,18.70
2018-05-02T14:06:13.556Z,18.40
2018-05-02T14:08:41.203Z,18.70
2018-05-02T14:11:08.873Z,19.10
2018-05-02T14:13:36.520Z,19.40
2018-05-02T14:16:04.236Z,19.90
2018-05-02T14:18:31.864Z,20.20
2018-05-02T14:20:59.637Z,21.00
2018-05-02T14:23:27.394Z,21.00
2018-05-02T14:25:55.168Z,21.00
2018-05-02T14:28:22.832Z,21.10
2018-05-02T14:30:50.589Z,20.90
2018-05-02T14:33:18.247Z,20.70
2018-05-02T14:35:46.004Z,20.00
2018-05-02T14:38:14.385Z,20.70
2018-05-02T14:40:42.576Z,21.30
2018-05-02T14:43:10.322Z,21.70
2018-05-02T14:45:37.991Z,21.40
2018-05-02T14:48:05.650Z,21.40
2018-05-02T14:50:33.297Z,21.20
2018-05-02T14:53:00.962Z,21.10
2018-05-02T14:55:28.651Z,21.20
2018-05-02T14:57:56.310Z,21.20
2018-05-02T15:00:24.493Z,21.20
2018-05-02T15:02:52.195Z,21.10
2018-05-02T15:05:19.824Z,20.60
2018-05-02T15:07:47.508Z,20.00
2018-05-02T15:10:15.171Z,19.90
2018-05-02T15:12:42.940Z,19.60
2018-05-02T15:15:10.589Z,19.40
2018-05-02T15:17:38.274Z,19.10
2018-05-02T15:20:05.944Z,19.00
2018-05-02T15:22:33.690Z,18.90
2018-05-02T15:25:01.332Z,18.40
2018-05-02T15:27:29.007Z,18.30
2018-05-02T15:29:56.659Z,18.00
2018-05-02T15:32:24.405Z,18.10
2018-05-02T15:34:52.090Z,18.30
2018-05-02T15:37:19.768Z,18.20
2018-05-02T15:39:47.435Z,18.00
2018-05-02T15:42:16.039Z,18.20
2018-05-02T15:44:43.764Z,18.10
2018-05-02T15:47:12.153Z,18.10
2018-05-02T15:49:39.815Z,18.10
2018-05-02T15:52:07.477Z,18.20
2018-05-02T15:54:35.129Z,18.40
2018-05-02T15:57:02.837Z,18.20
2018-05-02T15:59:31.361Z,18.40
2018-05-02T16:01:59.114Z,18.40
2018-05-02T16:04:26.773Z,18.40
2018-05-02T16:06:54.443Z,18.30
2018-05-02T16:09:22.097Z,18.10
2018-05-02T16:11:49.762Z,18.10
2018-05-02T16:14:17.439Z,18.00
2018-05-02T16:16:45.104Z,18.00
2018-05-02T16:19:12.781Z,18.00
2018-05-02T16:21:40.441Z,18.00
2018-05-02T16:24:08.183Z,17.80
2018-05-02T16:26:35.852Z,17.60
2018-05-02T16:29:03.549Z,17.70
2018-05-02T16:31:31.187Z,17.40
2018-05-02T16:33:58.848Z,17.30
2018-05-02T16:36:26.607Z,17.20
2018-05-02T16:38:54.282Z,17.10
2018-05-02T16:41:22.031Z,17.00
2018-05-02T16:43:49.711Z,16.80
2018-05-02T16:46:17.430Z,16.70
2018-05-02T16:48:45.116Z,16.60
2018-05-02T16:51:12.773Z,16.60
2018-05-02T16:53:40.467Z,16.40
2018-05-02T16:56:08.127Z,16.30
2018-05-02T16:58:35.800Z,16.20
2018-05-02T17:01:03.460Z,16.20
2018-05-02T17:03:31.136Z,16.20
2018-05-02T17:05:58.793Z,16.10
2018-05-02T17:08:26.737Z,16.00
2018-05-02T17:10:54.399Z,16.00
2018-05-02T17:13:22.156Z,15.90
2018-05-02T17:15:49.808Z,15.90
2018-05-02T17:18:17.491Z,15.90
2018-05-02T17:20:45.176Z,15.90
2018-05-02T17:23:12.834Z,15.90
2018-05-02T17:25:40.496Z,15.90
2018-05-02T17:28:08.172Z,15.90
2018-05-02T17:30:35.902Z,15.90
2018-05-02T17:33:03.667Z,15.90
2018-05-02T17:35:31.338Z,15.80
2018-05-02T17:37:59.002Z,15.80
2018-05-02T17:40:26.675Z,15.80
2018-05-02T17:42:54.428Z,15.80
2018-05-02T17:45:22.109Z,15.80
2018-05-02T17:47:49.763Z,15.70
2018-05-02T17:50:17.500Z,15.80
2018-05-02T17:52:45.298Z,15.70
2018-05-02T17:55:12.952Z,15.70
2018-05-02T17:57:40.647Z,15.50
2018-05-02T18:00:08.288Z,15.60
2018-05-02T18:02:35.948Z,15.50
2018-05-02T18:05:03.695Z,15.50
2018-05-02T18:07:31.348Z,15.50
2018-05-02T18:09:59.127Z,15.40
2018-05-02T18:12:26.800Z,15.50
2018-05-02T18:14:54.469Z,15.50
2018-05-02T18:17:22.137Z,15.40
2018-05-02T18:19:49.914Z,15.20
2018-05-02T18:22:17.558Z,15.30
2018-05-02T18:24:45.227Z,15.20
2018-05-02T18:27:12.894Z,15.20
2018-05-02T18:29:40.581Z,15.20
2018-05-02T18:32:08.529Z,15.10
2018-05-02T18:34:36.224Z,15.10
2018-05-02T18:37:03.875Z,15.10
2018-05-02T18:39:31.560Z,15.10
2018-05-02T18:41:59.998Z,15.00
2018-05-02T18:44:27.635Z,15.00
2018-05-02T18:46:55.393Z,15.10
2018-05-02T18:49:23.051Z,15.00
2018-05-02T18:51:50.764Z,15.00
2018-05-02T18:54:18.436Z,15.00
2018-05-02T18:56:46.112Z,14.90
2018-05-02T18:59:14.541Z,14.80
2018-05-02T19:01:42.222Z,14.80
2018-05-02T19:04:09.885Z,14.80
2018-05-02T19:06:37.640Z,14.90
2018-05-02T19:09:05.359Z,14.80
2018-05-02T19:11:33.027Z,14.80
2018-05-02T19:14:01.601Z,14.70
2018-05-02T19:16:30.041Z,14.50
2018-05-02T19:19:03.496Z,14.50
2018-05-02T19:21:31.268Z,14.50
2018-05-02T19:23:59.086Z,14.40
2018-05-02T19:26:32.340Z,14.30
2018-05-02T19:29:00.037Z,14.30
2018-05-02T19:31:47.579Z,14.30
2018-05-02T19:34:15.418Z,14.20
2018-05-02T19:36:43.190Z,14.20
2018-05-02T19:39:10.855Z,14.30
2018-05-02T19:41:44.260Z,14.20
2018-05-02T19:44:12.697Z,14.30
2018-05-02T19:46:40.511Z,14.20
2018-05-02T19:49:08.163Z,14.30
2018-05-02T19:51:41.551Z,14.30
2018-05-02T19:54:09.218Z,14.30
2018-05-02T19:56:36.948Z,14.30
2018-05-02T19:59:04.629Z,14.30
2018-05-02T20:01:38.275Z,14.30
2018-05-02T20:04:05.924Z,14.30
2018-05-02T20:06:33.835Z,14.30
2018-05-02T20:09:07.315Z,14.20
2018-05-02T20:11:40.984Z,14.20
2018-05-02T20:14:08.656Z,14.10
2018-05-02T20:16:36.322Z,14.10
2018-05-02T20:19:04.085Z,14.20
2018-05-02T20:21:31.698Z,14.10
2018-05-02T20:23:59.360Z,14.20
2018-05-02T20:26:27.128Z,14.30
2018-05-02T20:28:54.779Z,14.30
2018-05-02T20:31:22.467Z,14.30
2018-05-02T20:33:50.144Z,14.40
2018-05-02T20:36:17.816Z,14.40
2018-05-02T20:38:45.472Z,14.30
2018-05-02T20:41:13.158Z,14.30
2018-05-02T20:43:40.802Z,14.30
2018-05-02T20:46:08.466Z,14.30
2018-05-02T20:48:36.131Z,14.30
2018-05-02T20:51:03.778Z,14.30
2018-05-02T20:53:31.562Z,14.20
2018-05-02T20:55:59.190Z,14.10
2018-05-02T20:58:26.862Z,14.10
2018-05-02T21:00:54.599Z,14.10
2018-05-02T21:03:22.288Z,14.00
2018-05-02T21:05:49.936Z,13.90
2018-05-02T21:08:17.603Z,13.90
2018-05-02T21:10:45.264Z,13.90
2018-05-02T21:13:12.947Z,13.90
2018-05-02T21:15:40.599Z,13.90
2018-05-02T21:18:08.270Z,13.80
2018-05-02T21:20:35.944Z,13.80
2018-05-02T21:23:03.635Z,13.80
2018-05-02T21:25:31.354Z,13.70
2018-05-02T21:27:59.120Z,13.60
2018-05-02T21:30:26.790Z,13.60
2018-05-02T21:32:54.455Z,13.50
2018-05-02T21:35:22.111Z,13.50
2018-05-02T21:37:49.850Z,13.40
2018-05-02T21:40:17.512Z,13.40
2018-05-02T21:42:45.261Z,13.40
2018-05-02T21:45:13.776Z,13.40
2018-05-02T21:47:41.452Z,13.40
2018-05-02T21:50:09.093Z,13.40
2018-05-02T21:52:36.780Z,13.40
2018-05-02T21:55:04.440Z,13.40
2018-05-02T21:57:32.123Z,13.50
2018-05-02T21:59:59.771Z,13.50
2018-05-02T22:02:27.439Z,13.50
2018-05-02T22:04:55.176Z,13.60
2018-05-02T22:07:22.851Z,13.60
2018-05-02T22:09:50.609Z,13.60
2018-05-02T22:12:18.302Z,13.60
2018-05-02T22:14:45.970Z,13.60
2018-05-02T22:17:13.631Z,13.60
2018-05-02T22:19:41.302Z,13.60
2018-05-02T22:22:09.011Z,13.50
2018-05-02T22:24:36.780Z,13.50
2018-05-02T22:27:04.439Z,13.60
2018-05-02T22:29:32.199Z,13.60
2018-05-02T22:31:59.888Z,13.70
2018-05-02T22:34:27.546Z,13.70
2018-05-02T22:36:55.306Z,13.60
2018-05-02T22:39:22.967Z,13.60
2018-05-02T22:41:50.623Z,13.60
2018-05-02T22:44:18.308Z,13.50
2018-05-02T22:46:46.037Z,13.50
2018-05-02T22:49:13.706Z,13.50
2018-05-02T22:51:41.375Z,13.50
2018-05-02T22:54:09.036Z,13.60
2018-05-02T22:56:36.691Z,13.50
2018-05-02T22:59:04.391Z,13.60
2018-05-02T23:01:32.048Z,13.60
2018-05-02T23:03:59.738Z,13.60
2018-05-02T23:06:28.254Z,13.60
2018-05-02T23:08:55.966Z,13.60
2018-05-02T23:11:23.595Z,13.60
2018-05-02T23:13:51.331Z,13.60
2018-05-02T23:16:20.568Z,13.50
2018-05-02T23:18:48.248Z,13.50
2018-05-02T23:21:15.970Z,13.60
2018-05-02T23:23:43.692Z,13.50
2018-05-02T23:26:11.311Z,13.50
2018-05-02T23:28:38.982Z,13.50
2018-05-02T23:31:06.734Z,13.50
2018-05-02T23:33:34.403Z,13.50
2018-05-02T23:36:02.057Z,13.50
2018-05-02T23:38:29.730Z,13.50
2018-05-02T23:40:57.390Z,13.50
2018-05-02T23:43:25.043Z,13.50
2018-05-02T23:45:52.712Z,13.50
2018-05-02T23:48:20.363Z,13.50
2018-05-02T23:50:48.177Z,13.50
2018-05-02T23:53:15.837Z,13.60
2018-05-02T23:55:43.503Z,13.50
2018-05-02T23:58:11.239Z,13.60
